map of BEM home
BEM - Airport
Location
City:  Béni Mellal, Tadla-Azilal, Morocco
Near (Alt.):Ouad Yaich
Name:Beni Mellal Airport
ICAO:GMMD
IATA:BEM

Details
Type:Airport (Aerodrome, Airfield)
Use:Public/Civil, International (customs port of entry)
Latitude:32°24'07"N (32.401944)
Longitude:6°18'58"W (-6.316110)
Elevation:1699 ft (518 m)
Variation:1.36°W (WMM2015 magnetic declination)
0.11° annual change
Runways:1
Longest:8169 × 148 ft (2490 × 45 m), paved

Time
Time Zone:UTC+0 (DST+1)
Local Time:

Weather
METAR:GMMD 161000Z 28004KT 9999 FEW100 20/10 Q1019 NOSIG

Related Locations
Nearby:
Farthest:KAT: 12245 mi / 19706 km
Kaitaia, NTL, NZ

Find:

   beyond  
but within

Other Information
Maps:
NOTAMs:
Links:
Sources:

  
  • flag of Morocco
  

Sectional Chart

Flight Planning
at skyvector.com

Satellite Image

Google Maps Satellite view

 

Copyright © 2004-2018 Karl L. Swartz. All rights reserved.
The Great Circle Mapper name and logo are trademarks of the Great Circle Mapper.
All other trademarks mentioned herein belong to their respective owners.
Please see credits for attibutions and further copyright information.

  Follow gcmap on Facebook Follow gcmap on Twitter Follow gcmap on Google+ GCmap on LinkedIn

hCard Microformat

Geo Microformat